createdAt,value
2022-09-13T00:01:33.412Z,62.04
2022-09-13T00:04:04.441Z,61.85
2022-09-13T00:06:32.083Z,62.71
2022-09-13T00:09:01.483Z,62.24
2022-09-13T00:11:31.573Z,62.70
2022-09-13T00:13:59.865Z,62.17
2022-09-13T00:16:29.834Z,61.82
2022-09-13T00:18:57.881Z,61.61
2022-09-13T00:21:27.999Z,61.76
2022-09-13T00:23:56.671Z,61.55
2022-09-13T00:26:27.543Z,61.78
2022-09-13T00:28:57.691Z,61.74
2022-09-13T00:31:28.019Z,62.74
2022-09-13T00:33:56.220Z,62.18
2022-09-13T00:36:24.425Z,62.20
2022-09-13T00:38:53.817Z,62.53
2022-09-13T00:41:22.833Z,62.49
2022-09-13T00:43:52.076Z,62.37
2022-09-13T00:46:27.774Z,62.58
2022-09-13T00:49:01.822Z,62.87
2022-09-13T00:51:30.054Z,62.61
2022-09-13T00:54:00.919Z,63.36
2022-09-13T00:56:35.528Z,62.96
2022-09-13T00:59:08.227Z,63.73
2022-09-13T01:01:42.484Z,62.60
2022-09-13T01:04:12.740Z,62.72
2022-09-13T01:06:42.733Z,65.46
2022-09-13T01:09:13.445Z,63.84
2022-09-13T01:11:47.214Z,63.38
2022-09-13T01:14:15.444Z,63.50
2022-09-13T01:16:47.618Z,63.52
2022-09-13T01:19:15.260Z,63.26
2022-09-13T01:22:19.105Z,64.40
2022-09-13T01:25:27.984Z,63.84
2022-09-13T01:28:18.873Z,62.46
2022-09-13T01:30:56.887Z,62.14
2022-09-13T01:33:36.835Z,64.58
2022-09-13T01:36:25.659Z,61.86
2022-09-13T01:39:00.310Z,61.95
2022-09-13T01:41:47.626Z,61.28
2022-09-13T01:44:27.161Z,61.29
2022-09-13T01:47:04.673Z,61.44
2022-09-13T01:49:40.272Z,61.67
2022-09-13T01:52:17.412Z,61.34
2022-09-13T01:54:55.223Z,63.77
2022-09-13T01:57:31.325Z,61.71
2022-09-13T02:00:03.887Z,61.27
2022-09-13T02:02:39.616Z,61.41
2022-09-13T02:05:12.935Z,61.20
2022-09-13T02:07:43.576Z,61.44
2022-09-13T02:10:16.407Z,61.40
2022-09-13T02:12:46.282Z,61.68
2022-09-13T02:15:17.885Z,61.47
2022-09-13T02:17:51.032Z,61.64
2022-09-13T02:20:24.741Z,61.89
2022-09-13T02:22:57.995Z,61.66
2022-09-13T02:25:27.370Z,61.87
2022-09-13T02:27:58.902Z,62.28
2022-09-13T02:30:28.421Z,61.89
2022-09-13T02:33:01.723Z,62.39
2022-09-13T02:35:35.411Z,62.50
2022-09-13T02:38:06.149Z,62.63
2022-09-13T02:40:43.401Z,63.07
2022-09-13T02:43:16.044Z,62.78
2022-09-13T02:45:52.159Z,62.94
2022-09-13T02:48:26.642Z,63.27
2022-09-13T02:51:01.069Z,62.99
2022-09-13T02:53:36.683Z,63.32
2022-09-13T02:56:10.766Z,63.46
2022-09-13T02:58:46.392Z,63.69
2022-09-13T03:01:15.112Z,63.50
2022-09-13T03:03:44.787Z,63.76
2022-09-13T03:06:12.731Z,64.21
2022-09-13T03:08:40.704Z,63.88
2022-09-13T03:11:18.592Z,64.05
2022-09-13T03:14:18.986Z,63.92
2022-09-13T03:17:02.873Z,65.80
2022-09-13T03:19:44.460Z,65.28
2022-09-13T03:22:28.842Z,64.14
2022-09-13T03:25:06.932Z,63.97
2022-09-13T03:27:41.495Z,63.92
2022-09-13T03:30:10.516Z,64.32
2022-09-13T03:32:45.021Z,64.25
2022-09-13T03:35:23.100Z,64.81
2022-09-13T03:37:58.662Z,65.49
2022-09-13T03:40:36.003Z,64.97
2022-09-13T03:43:09.610Z,64.98
2022-09-13T03:45:51.030Z,65.37
2022-09-13T03:48:20.335Z,65.30
2022-09-13T03:50:50.708Z,65.51
2022-09-13T03:53:21.994Z,65.33
2022-09-13T03:55:49.661Z,67.21
2022-09-13T03:58:19.398Z,67.05
2022-09-13T04:00:47.336Z,67.36
2022-09-13T04:03:15.647Z,67.85
2022-09-13T04:05:43.145Z,66.51
2022-09-13T04:08:11.962Z,65.41
2022-09-13T04:10:39.981Z,65.56
2022-09-13T04:13:07.450Z,65.02
2022-09-13T04:15:34.929Z,65.15
2022-09-13T04:18:02.421Z,65.32
2022-09-13T04:20:30.049Z,64.77
2022-09-13T04:22:58.507Z,64.70
2022-09-13T04:25:27.541Z,64.62
2022-09-13T04:27:55.924Z,64.71
2022-09-13T04:30:23.552Z,64.85
2022-09-13T04:32:51.181Z,65.04
2022-09-13T04:35:19.552Z,65.64
2022-09-13T04:37:47.268Z,65.05
2022-09-13T04:40:15.044Z,69.36
2022-09-13T04:42:44.892Z,67.08
2022-09-13T04:45:12.530Z,68.51
2022-09-13T04:47:40.047Z,68.96
2022-09-13T04:50:08.308Z,66.05
2022-09-13T04:52:35.833Z,65.97
2022-09-13T04:55:03.446Z,67.31
2022-09-13T04:57:30.921Z,65.70
2022-09-13T04:59:59.996Z,65.34
2022-09-13T05:02:27.706Z,65.15
2022-09-13T05:04:59.469Z,65.36
2022-09-13T05:07:32.782Z,65.43
2022-09-13T05:10:00.373Z,68.33
2022-09-13T05:12:27.931Z,68.85
2022-09-13T05:14:55.600Z,67.73
2022-09-13T05:17:24.464Z,67.00
2022-09-13T05:19:52.033Z,68.93
2022-09-13T05:22:19.549Z,70.49
2022-09-13T05:24:47.123Z,66.96
2022-09-13T05:27:14.749Z,65.90
2022-09-13T05:29:42.347Z,65.64
2022-09-13T05:32:19.527Z,66.00
2022-09-13T05:34:48.739Z,67.28
2022-09-13T05:37:16.245Z,69.66
2022-09-13T05:40:07.802Z,68.16
2022-09-13T05:42:31.179Z,67.28
2022-09-13T05:44:58.686Z,66.54
2022-09-13T05:47:26.232Z,66.14
2022-09-13T05:50:09.958Z,68.21
2022-09-13T05:52:38.622Z,66.27
2022-09-13T05:55:06.550Z,66.76
2022-09-13T05:57:34.038Z,67.54
2022-09-13T06:00:01.508Z,66.78
2022-09-13T06:02:29.075Z,67.10
2022-09-13T06:04:58.004Z,69.92
2022-09-13T06:07:25.544Z,67.19
2022-09-13T06:09:53.418Z,68.04
2022-09-13T06:12:21.237Z,68.31
2022-09-13T06:14:48.759Z,67.90
2022-09-13T06:17:16.336Z,66.55
2022-09-13T06:36:34.027Z,63.37
2022-09-13T06:40:07.763Z,62.91
2022-09-13T06:47:01.087Z,63.07
2022-09-13T06:49:41.578Z,62.61
2022-09-13T06:53:02.128Z,62.66
2022-09-13T06:58:56.425Z,62.83
2022-09-13T07:01:55.000Z,63.44
2022-09-13T07:04:52.086Z,64.87
2022-09-13T07:07:26.545Z,64.33
2022-09-13T07:13:13.438Z,62.19
2022-09-13T07:16:03.449Z,61.68
2022-09-13T07:19:00.711Z,61.32
2022-09-13T07:21:46.993Z,60.76
2022-09-13T07:27:30.272Z,60.61
2022-09-13T07:29:59.815Z,60.08
2022-09-13T07:32:50.945Z,59.64
2022-09-13T07:35:32.983Z,61.72
2022-09-13T07:38:36.362Z,60.19
2022-09-13T07:41:14.028Z,59.57
2022-09-13T07:48:25.031Z,59.09
2022-09-13T07:51:19.322Z,61.30
2022-09-13T07:53:57.035Z,58.40
2022-09-13T08:11:35.648Z,48.83
2022-09-13T08:18:30.602Z,47.04
2022-09-13T08:22:08.563Z,43.68
2022-09-13T08:36:30.228Z,36.54
2022-09-13T08:50:09.325Z,32.51
2022-09-13T09:00:22.927Z,29.68
2022-09-13T09:07:08.770Z,29.06
2022-09-13T09:25:17.178Z,24.85
2022-09-13T09:27:45.087Z,24.85
2022-09-13T09:30:15.358Z,27.14
2022-09-13T09:32:52.838Z,24.26
2022-09-13T10:06:07.311Z,29.19
2022-09-13T10:09:28.964Z,30.20
2022-09-13T10:12:08.492Z,33.02
2022-09-13T10:15:17.134Z,29.59
2022-09-13T10:18:03.450Z,29.05
2022-09-13T10:20:32.811Z,27.32
2022-09-13T10:26:40.321Z,26.87
2022-09-13T10:29:23.829Z,24.73
2022-09-13T10:31:55.548Z,24.27
2022-09-13T10:34:24.155Z,25.45
2022-09-13T10:36:55.604Z,24.60
2022-09-13T10:39:25.034Z,25.81
2022-09-13T10:41:57.018Z,24.29
2022-09-13T10:44:34.019Z,24.86
2022-09-13T10:47:05.511Z,23.83
2022-09-13T10:49:37.665Z,22.70
2022-09-13T10:52:27.936Z,21.93
2022-09-13T10:54:56.239Z,20.83
2022-09-13T10:57:34.448Z,21.98
2022-09-13T11:00:03.074Z,20.82
2022-09-13T11:02:49.124Z,19.21
2022-09-13T11:05:25.980Z,20.14
2022-09-13T11:08:22.511Z,19.03
2022-09-13T11:11:02.271Z,19.53
2022-09-13T11:13:44.844Z,18.49
2022-09-13T11:16:27.169Z,17.62
2022-09-13T11:19:09.569Z,18.22
2022-09-13T11:21:48.958Z,20.22
2022-09-13T11:24:48.399Z,18.92
2022-09-13T11:27:26.923Z,21.42
2022-09-13T11:30:13.805Z,21.72
2022-09-13T11:32:53.559Z,22.19
2022-09-13T11:35:43.302Z,21.46
2022-09-13T11:38:33.880Z,20.54
2022-09-13T11:41:12.887Z,20.85
2022-09-13T11:43:56.241Z,20.01
2022-09-13T11:46:34.326Z,19.19
2022-09-13T11:49:26.574Z,19.49
2022-09-13T11:52:04.329Z,19.71
2022-09-13T11:54:44.652Z,19.22
2022-09-13T11:57:18.544Z,19.53
2022-09-13T11:59:50.531Z,21.18
2022-09-13T12:02:28.575Z,21.14
2022-09-13T12:05:20.957Z,21.02
2022-09-13T12:07:51.438Z,21.76
2022-09-13T12:10:23.554Z,23.20
2022-09-13T12:12:52.716Z,23.52
2022-09-13T12:15:26.888Z,23.91
2022-09-13T12:17:59.892Z,24.89
2022-09-13T12:20:33.148Z,24.44
2022-09-13T12:23:03.398Z,24.96
2022-09-13T12:25:39.850Z,26.41
2022-09-13T12:28:18.282Z,26.57
2022-09-13T12:30:51.959Z,26.31
2022-09-13T12:33:21.227Z,26.84
2022-09-13T12:36:11.978Z,27.40
2022-09-13T12:39:01.603Z,27.79
2022-09-13T12:41:44.504Z,28.28
2022-09-13T12:44:33.772Z,28.40
2022-09-13T12:47:30.690Z,28.25
2022-09-13T12:50:42.019Z,28.62
2022-09-13T12:53:27.959Z,29.10
2022-09-13T12:56:11.920Z,28.70
2022-09-13T12:58:57.336Z,29.02
2022-09-13T13:01:27.556Z,30.12
2022-09-13T13:03:59.545Z,29.96
2022-09-13T13:06:33.300Z,31.44
2022-09-13T13:09:04.084Z,31.16
2022-09-13T13:11:44.082Z,32.04
2022-09-13T13:14:29.411Z,31.86
2022-09-13T13:17:37.119Z,32.02
2022-09-13T13:20:38.414Z,32.12
2022-09-13T13:23:23.384Z,31.94
2022-09-13T13:26:05.711Z,32.32
2022-09-13T13:29:04.725Z,32.66
2022-09-13T13:31:38.331Z,32.81
2022-09-13T13:34:28.668Z,33.40
2022-09-13T13:37:01.007Z,33.11
2022-09-13T13:39:39.154Z,33.46
2022-09-13T13:42:26.128Z,33.81
2022-09-13T13:45:32.169Z,34.17
2022-09-13T13:48:16.175Z,34.27
2022-09-13T13:51:14.101Z,33.84
2022-09-13T13:53:44.560Z,34.18
2022-09-13T13:56:35.125Z,34.25
2022-09-13T13:59:14.465Z,34.20
2022-09-13T14:01:47.630Z,34.11
2022-09-13T14:04:43.806Z,34.22
2022-09-13T14:07:23.171Z,34.35
2022-09-13T14:09:57.483Z,34.17
2022-09-13T14:12:40.430Z,34.64
2022-09-13T14:15:32.877Z,34.62
2022-09-13T14:18:14.844Z,34.53
2022-09-13T14:21:01.393Z,34.69
2022-09-13T14:23:30.182Z,35.14
2022-09-13T14:26:00.117Z,35.58
2022-09-13T14:28:29.622Z,35.73
2022-09-13T14:30:59.500Z,35.59
2022-09-13T14:33:32.114Z,34.78
2022-09-13T14:36:02.493Z,35.39
2022-09-13T14:38:35.401Z,36.33
2022-09-13T14:41:13.897Z,36.48
2022-09-13T14:43:43.762Z,36.78
2022-09-13T14:46:14.782Z,36.96
2022-09-13T14:48:50.618Z,36.96
2022-09-13T14:51:22.417Z,37.65
2022-09-13T14:53:53.612Z,36.97
2022-09-13T14:56:31.186Z,36.16
2022-09-13T14:59:04.968Z,35.58
2022-09-13T15:01:35.002Z,35.62
2022-09-13T15:04:05.368Z,35.82
2022-09-13T15:06:34.967Z,36.33
2022-09-13T15:09:16.141Z,36.44
2022-09-13T15:11:57.914Z,36.15
2022-09-13T15:14:31.089Z,36.64
2022-09-13T15:17:02.934Z,36.94
2022-09-13T15:19:37.050Z,37.09
2022-09-13T15:22:07.513Z,37.12
2022-09-13T15:24:36.864Z,37.15
2022-09-13T15:27:08.123Z,37.20
2022-09-13T15:29:37.755Z,37.30
2022-09-13T15:32:06.851Z,37.56
2022-09-13T15:34:34.776Z,37.65
2022-09-13T15:37:16.140Z,37.50
2022-09-13T15:39:48.191Z,37.68
2022-09-13T15:42:16.425Z,37.79
2022-09-13T15:44:45.412Z,37.50
2022-09-13T15:47:18.524Z,37.39
2022-09-13T15:49:58.588Z,38.17
2022-09-13T15:52:26.250Z,38.34
2022-09-13T15:54:53.950Z,37.84
2022-09-13T16:07:37.732Z,39.52
2022-09-13T19:33:54.564Z,54.16
2022-09-13T19:36:59.156Z,54.24
2022-09-13T19:40:09.965Z,54.51
2022-09-13T19:43:07.721Z,54.36
2022-09-13T19:46:01.448Z,54.72
2022-09-13T19:48:46.749Z,54.96
2022-09-13T19:51:22.691Z,54.94
2022-09-13T19:54:00.214Z,55.35
2022-09-13T19:59:32.508Z,55.70
2022-09-13T20:02:13.780Z,56.31
2022-09-13T20:05:00.793Z,56.05
2022-09-13T20:07:50.274Z,56.58
2022-09-13T20:10:25.505Z,56.54
2022-09-13T20:13:05.364Z,56.91
2022-09-13T20:15:57.071Z,57.42
2022-09-13T20:18:32.645Z,56.82
2022-09-13T20:21:18.311Z,57.13
2022-09-13T20:23:49.771Z,57.17
2022-09-13T20:26:42.481Z,57.41
2022-09-13T22:36:02.615Z,59.80
2022-09-13T22:38:31.733Z,59.57
2022-09-13T22:41:02.509Z,59.82
2022-09-13T22:43:30.511Z,59.63
2022-09-13T22:46:03.537Z,59.67
2022-09-13T22:48:31.482Z,59.58
2022-09-13T22:50:59.706Z,59.53
2022-09-13T22:53:29.477Z,59.80
2022-09-13T22:55:57.695Z,59.58
2022-09-13T22:58:25.889Z,59.86
2022-09-13T23:01:02.751Z,59.58
2022-09-13T23:03:31.081Z,59.58
2022-09-13T23:05:59.150Z,59.37
2022-09-13T23:08:28.771Z,59.00
2022-09-13T23:10:57.374Z,59.07
2022-09-13T23:13:25.316Z,58.87
2022-09-13T23:15:53.277Z,58.63
2022-09-13T23:18:21.359Z,58.85
2022-09-13T23:20:57.194Z,58.11
2022-09-13T23:23:25.373Z,57.96
2022-09-13T23:25:54.698Z,57.68
2022-09-13T23:28:22.526Z,57.75
2022-09-13T23:30:50.476Z,57.78
2022-09-13T23:33:18.392Z,57.78
2022-09-13T23:35:46.678Z,57.77
2022-09-13T23:38:14.545Z,57.59
2022-09-13T23:40:42.297Z,57.70
2022-09-13T23:43:11.493Z,57.67
2022-09-13T23:45:39.336Z,57.81
2022-09-13T23:48:07.633Z,57.72
2022-09-13T23:50:35.452Z,57.40
2022-09-13T23:53:03.403Z,57.56
2022-09-13T23:55:31.271Z,57.42
2022-09-13T23:57:58.987Z,57.22
